Time;durP1;ratioP1;P1;durP2;ratioP2;P2;SDS_P1;SDS_P2;PMS_P1;PMS_P2;Temp;Humidity;BMP_temperature;BMP_pressure;BME280_temperature;BME280_humidity;BME280_pressure;Samples;Min_cycle;Max_cycle;Signal;HPM_P1;HPM_P2
2023/08/23 00:01:59;;;;;;;584.57;554.80;;;14.00;99.90;;;;;;5113788;28;20444;-67
2023/08/23 00:04:26;;;;;;;593.07;563.03;;;14.00;99.90;;;;;;5113498;28;20441;-68
2023/08/23 00:06:53;;;;;;;587.53;557.73;;;14.00;99.90;;;;;;5114075;28;20539;-67
2023/08/23 00:09:21;;;;;;;605.43;574.63;;;14.00;99.90;;;;;;5113572;28;20481;-67
2023/08/23 00:11:48;;;;;;;627.40;595.17;;;13.90;99.90;;;;;;5113490;28;20964;-68
2023/08/23 00:14:15;;;;;;;666.17;630.43;;;13.90;99.90;;;;;;5113416;28;20448;-68
2023/08/23 00:16:42;;;;;;;640.77;607.97;;;13.90;99.90;;;;;;5113385;28;20449;-67
2023/08/23 00:19:08;;;;;;;674.17;638.23;;;13.90;99.90;;;;;;5113300;28;20449;-67
2023/08/23 00:21:35;;;;;;;674.67;639.50;;;13.80;99.90;;;;;;5113229;28;20935;-68
2023/08/23 00:24:02;;;;;;;668.13;634.03;;;13.90;99.90;;;;;;5113455;28;20452;-67
2023/08/23 00:26:30;;;;;;;640.13;607.93;;;13.80;99.90;;;;;;5113287;28;20445;-68
2023/08/23 00:28:57;;;;;;;700.20;663.30;;;13.80;99.90;;;;;;5113213;28;20835;-68
2023/08/23 00:31:24;;;;;;;770.83;728.43;;;13.80;99.90;;;;;;5113186;28;20856;-68
2023/08/23 00:33:51;;;;;;;762.50;720.87;;;13.80;99.90;;;;;;5113060;28;20460;-67
2023/08/23 00:36:18;;;;;;;753.53;712.47;;;13.70;99.90;;;;;;5112992;28;20445;-67
2023/08/23 00:38:45;;;;;;;737.87;697.93;;;13.70;99.90;;;;;;5113147;28;20453;-67
2023/08/23 00:41:11;;;;;;;789.23;744.13;;;13.60;99.90;;;;;;5112938;28;20453;-67
2023/08/23 00:43:39;;;;;;;808.87;762.83;;;13.70;99.90;;;;;;5113248;28;20449;-68
2023/08/23 00:46:07;;;;;;;782.77;739.57;;;13.60;99.90;;;;;;5112250;28;20449;-68
2023/08/23 00:48:34;;;;;;;780.10;737.27;;;13.70;99.90;;;;;;5112870;28;20884;-68
2023/08/23 00:51:01;;;;;;;757.70;718.00;;;13.60;99.90;;;;;;5112590;28;20483;-68
2023/08/23 00:53:28;;;;;;;785.70;743.73;;;13.60;99.90;;;;;;5112916;28;20531;-68
2023/08/23 00:55:55;;;;;;;841.53;793.67;;;13.50;99.90;;;;;;5112988;28;20445;-68
2023/08/23 00:58:22;;;;;;;838.37;790.27;;;13.60;99.90;;;;;;5112862;28;20441;-68
2023/08/23 01:00:51;;;;;;;814.30;767.80;;;13.50;99.90;;;;;;5112889;28;20830;-68
2023/08/23 01:03:19;;;;;;;824.60;777.23;;;13.50;99.90;;;;;;5112460;28;20469;-68
2023/08/23 01:05:57;;;;;;;859.83;809.23;;;13.60;99.90;;;;;;5112888;28;20449;-67
2023/08/23 01:08:32;;;;;;;859.80;808.37;;;13.50;99.90;;;;;;5112830;28;20487;-68
2023/08/23 01:11:03;;;;;;;844.77;795.13;;;13.50;99.90;;;;;;5112708;28;20476;-68
2023/08/23 01:13:34;;;;;;;819.43;772.13;;;13.50;99.90;;;;;;5112566;28;20449;-68
2023/08/23 01:16:02;;;;;;;818.50;771.40;;;13.40;99.90;;;;;;5112576;28;20453;-68
2023/08/23 01:18:30;;;;;;;811.10;763.93;;;13.40;99.90;;;;;;5112754;28;20453;-68
2023/08/23 01:20:58;;;;;;;781.23;737.53;;;13.50;99.90;;;;;;5112649;28;20733;-68
2023/08/23 01:23:27;;;;;;;771.50;728.50;;;13.50;99.90;;;;;;5112448;28;20455;-68
2023/08/23 01:25:54;;;;;;;835.37;785.67;;;13.50;99.90;;;;;;5112581;28;20829;-68
2023/08/23 01:28:21;;;;;;;837.60;787.50;;;13.40;99.90;;;;;;5112311;28;20448;-68
2023/08/23 01:30:49;;;;;;;814.53;766.40;;;13.50;99.90;;;;;;5112637;28;20836;-68
2023/08/23 01:33:26;;;;;;;816.53;768.73;;;13.50;99.90;;;;;;5112040;28;20452;-68
2023/08/23 01:36:00;;;;;;;815.37;768.13;;;13.50;99.90;;;;;;5112409;28;20440;-68
2023/08/23 01:38:31;;;;;;;814.20;766.10;;;13.40;99.90;;;;;;5112438;28;20444;-68
2023/08/23 01:40:58;;;;;;;825.20;776.10;;;13.40;99.90;;;;;;5112221;28;20611;-68
2023/08/23 01:43:25;;;;;;;831.40;782.03;;;13.40;99.90;;;;;;5112191;28;20452;-68
2023/08/23 01:45:51;;;;;;;830.47;780.83;;;13.30;99.90;;;;;;5112568;28;20449;-68
2023/08/23 01:48:18;;;;;;;839.43;788.83;;;13.30;99.90;;;;;;5112258;28;20452;-68
2023/08/23 01:50:45;;;;;;;834.90;784.50;;;13.40;99.90;;;;;;5112151;28;20568;-68
2023/08/23 01:53:12;;;;;;;816.40;768.80;;;13.30;99.90;;;;;;5112140;28;20476;-68
2023/08/23 01:55:40;;;;;;;799.67;753.47;;;13.20;99.90;;;;;;5112057;28;20452;-68
2023/08/23 01:58:07;;;;;;;810.33;761.63;;;13.20;99.90;;;;;;5114443;28;20455;-68
2023/08/23 02:00:34;;;;;;;819.00;770.67;;;13.30;99.90;;;;;;5116251;28;20440;-68
2023/08/23 02:03:01;;;;;;;825.10;776.63;;;13.30;99.90;;;;;;5116116;28;20451;-68
2023/08/23 02:05:30;;;;;;;826.47;776.57;;;13.30;99.90;;;;;;5115945;28;20819;-68
2023/08/23 02:07:57;;;;;;;826.20;776.53;;;13.30;99.90;;;;;;5115913;28;20448;-68
2023/08/23 02:10:23;;;;;;;831.77;781.80;;;13.30;99.90;;;;;;5115986;28;20483;-68
2023/08/23 02:12:51;;;;;;;846.70;794.20;;;13.30;99.90;;;;;;5115794;28;20448;-68
2023/08/23 02:15:18;;;;;;;837.13;786.43;;;13.30;99.90;;;;;;5116102;28;20467;-68
2023/08/23 02:17:45;;;;;;;851.87;799.30;;;13.30;99.90;;;;;;5115849;28;20444;-68
2023/08/23 02:20:12;;;;;;;839.77;787.53;;;13.20;99.90;;;;;;5115443;28;20440;-68
2023/08/23 02:22:39;;;;;;;853.80;799.20;;;13.20;99.90;;;;;;5115496;28;20455;-68
2023/08/23 02:25:06;;;;;;;873.30;815.23;;;13.20;99.90;;;;;;5115669;28;20455;-68
2023/08/23 02:27:33;;;;;;;864.87;808.73;;;13.20;99.90;;;;;;5115766;28;20448;-68
2023/08/23 02:30:01;;;;;;;856.63;801.33;;;13.20;99.90;;;;;;5115587;28;20495;-68
2023/08/23 02:32:28;;;;;;;870.53;814.60;;;13.20;99.90;;;;;;5115580;28;20445;-68
2023/08/23 02:34:55;;;;;;;894.57;835.87;;;13.10;99.90;;;;;;5115324;28;20896;-68
2023/08/23 02:37:22;;;;;;;898.03;837.87;;;13.00;99.90;;;;;;5115596;28;20456;-68
2023/08/23 02:39:48;;;;;;;933.37;866.10;;;13.00;99.90;;;;;;5115541;28;20441;-68
2023/08/23 02:42:15;;;;;;;911.10;848.83;;;13.00;99.90;;;;;;5115511;28;20531;-68
2023/08/23 02:44:42;;;;;;;901.13;841.87;;;13.00;99.90;;;;;;5115549;28;20445;-68
2023/08/23 02:47:10;;;;;;;891.27;832.43;;;12.90;99.90;;;;;;5115280;28;20445;-68
2023/08/23 02:49:37;;;;;;;887.13;829.43;;;13.00;99.90;;;;;;5115022;28;20453;-68
2023/08/23 02:52:05;;;;;;;896.33;836.23;;;13.00;99.90;;;;;;5114907;28;20480;-68
2023/08/23 02:54:32;;;;;;;893.57;833.63;;;13.00;99.90;;;;;;5115178;28;20451;-68
2023/08/23 02:56:58;;;;;;;878.90;822.03;;;13.00;99.90;;;;;;5115178;28;20828;-68
2023/08/23 02:59:26;;;;;;;879.23;821.60;;;12.90;99.90;;;;;;5114983;28;20445;-68
2023/08/23 03:01:53;;;;;;;888.33;830.40;;;12.90;99.90;;;;;;5114871;28;20441;-68
2023/08/23 03:04:21;;;;;;;894.73;835.83;;;12.80;99.90;;;;;;5114639;28;20449;-68
2023/08/23 03:06:48;;;;;;;929.07;863.97;;;12.80;99.90;;;;;;5114959;28;20451;-68
2023/08/23 03:09:15;;;;;;;946.70;875.33;;;12.80;99.90;;;;;;5114376;28;20471;-68
2023/08/23 03:11:42;;;;;;;937.93;868.73;;;12.90;99.90;;;;;;5114579;28;20476;-68
2023/08/23 03:14:09;;;;;;;929.50;863.20;;;12.90;99.90;;;;;;5114534;28;20449;-68
2023/08/23 03:16:36;;;;;;;935.27;869.47;;;12.90;99.90;;;;;;5114746;28;20796;-68
2023/08/23 03:19:03;;;;;;;923.43;857.80;;;12.80;99.90;;;;;;5114360;28;20449;-68
2023/08/23 03:21:31;;;;;;;927.23;861.17;;;12.80;99.90;;;;;;5114505;28;20448;-68
2023/08/23 03:23:57;;;;;;;917.23;852.30;;;12.80;99.90;;;;;;5114498;28;20450;-68
2023/08/23 03:26:24;;;;;;;928.63;863.67;;;12.80;99.90;;;;;;5114559;28;20448;-68
2023/08/23 03:28:51;;;;;;;911.23;848.00;;;12.80;99.90;;;;;;5114338;28;20449;-68
2023/08/23 03:31:18;;;;;;;921.77;859.57;;;12.80;99.90;;;;;;5114107;28;20472;-68
2023/08/23 03:33:45;;;;;;;926.07;863.23;;;12.80;99.90;;;;;;5114303;28;20532;-68
2023/08/23 03:36:12;;;;;;;917.90;855.90;;;12.70;99.90;;;;;;5114651;28;20455;-68
2023/08/23 03:38:40;;;;;;;934.80;870.53;;;12.70;99.90;;;;;;5114322;28;20797;-68
2023/08/23 03:41:13;;;;;;;939.00;872.40;;;12.70;99.90;;;;;;5114215;28;20441;-68
2023/08/23 03:43:39;;;;;;;950.30;882.40;;;12.60;99.90;;;;;;5114049;28;20452;-68
2023/08/23 03:46:06;;;;;;;945.97;876.97;;;12.70;99.90;;;;;;5113901;28;20449;-68
2023/08/23 03:48:33;;;;;;;940.33;872.73;;;12.60;99.90;;;;;;5113936;28;20544;-68
2023/08/23 03:51:00;;;;;;;957.03;885.50;;;12.60;99.90;;;;;;5113636;28;21000;-68
2023/08/23 03:53:27;;;;;;;950.77;880.60;;;12.60;99.90;;;;;;5113777;28;20445;-68
2023/08/23 03:55:55;;;;;;;931.87;865.20;;;12.70;99.90;;;;;;5113997;28;20502;-68
2023/08/23 03:58:22;;;;;;;940.53;873.10;;;12.60;99.90;;;;;;5113600;28;20464;-68
2023/08/23 04:00:50;;;;;;;971.23;897.53;;;12.60;99.90;;;;;;5113925;28;20441;-68
2023/08/23 04:03:17;;;;;;;984.20;907.30;;;12.50;99.90;;;;;;5113706;28;20574;-68
2023/08/23 04:05:44;;;;;;;976.20;898.83;;;12.50;99.90;;;;;;5113788;28;20445;-68
2023/08/23 04:08:11;;;;;;;969.83;893.60;;;12.60;99.90;;;;;;5113543;28;20955;-68
2023/08/23 04:10:38;;;;;;;972.07;894.73;;;12.60;99.90;;;;;;5113536;28;20473;-68
2023/08/23 04:13:06;;;;;;;974.70;897.10;;;12.50;99.90;;;;;;5113248;28;20456;-68
2023/08/23 04:15:33;;;;;;;969.43;893.83;;;12.60;99.90;;;;;;5113545;28;20453;-68
2023/08/23 04:18:01;;;;;;;969.13;892.40;;;12.50;99.90;;;;;;5113430;28;20445;-68
2023/08/23 04:20:28;;;;;;;965.47;889.77;;;12.60;99.90;;;;;;5112749;28;20453;-68
2023/08/23 04:22:55;;;;;;;951.90;877.00;;;12.70;99.90;;;;;;5112935;28;20965;-68
2023/08/23 04:25:22;;;;;;;955.93;879.03;;;12.70;99.90;;;;;;5113079;28;20445;-68
2023/08/23 04:27:48;;;;;;;952.77;873.97;;;12.70;99.90;;;;;;5113157;28;20445;-68
2023/08/23 04:30:17;;;;;;;961.73;881.83;;;12.80;99.90;;;;;;5113104;28;20456;-68
2023/08/23 04:32:43;;;;;;;949.93;872.23;;;12.90;99.90;;;;;;5112971;28;20451;-68
2023/08/23 04:35:10;;;;;;;940.23;865.07;;;13.00;99.90;;;;;;5113047;28;20457;-68
2023/08/23 04:37:38;;;;;;;940.17;864.97;;;12.90;99.90;;;;;;5113139;28;20940;-68
2023/08/23 04:40:07;;;;;;;946.83;872.93;;;12.90;99.90;;;;;;5112990;28;20471;-68
2023/08/23 04:42:34;;;;;;;964.73;890.47;;;12.80;99.90;;;;;;5113162;28;20452;-68
2023/08/23 04:45:01;;;;;;;953.03;879.10;;;12.90;99.90;;;;;;5113013;28;20480;-68
2023/08/23 04:47:31;;;;;;;934.00;860.00;;;12.80;99.90;;;;;;5112943;28;20452;-68
2023/08/23 04:49:57;;;;;;;947.63;873.47;;;12.80;99.90;;;;;;5112903;28;20540;-68
2023/08/23 04:52:24;;;;;;;964.27;891.33;;;12.80;99.90;;;;;;5112807;28;20852;-68
2023/08/23 04:54:51;;;;;;;959.47;888.03;;;12.80;99.90;;;;;;5112662;28;20530;-68
2023/08/23 04:57:18;;;;;;;945.30;874.23;;;12.80;99.90;;;;;;5113044;28;20449;-69
2023/08/23 04:59:45;;;;;;;949.37;879.10;;;12.80;99.90;;;;;;5112798;28;20479;-68
2023/08/23 05:02:11;;;;;;;953.90;884.10;;;12.80;99.90;;;;;;5112627;28;20448;-68
2023/08/23 05:04:40;;;;;;;974.20;895.30;;;12.80;99.90;;;;;;5112648;28;20460;-68
2023/08/23 05:07:06;;;;;;;951.53;874.00;;;12.80;99.90;;;;;;5113135;28;20449;-68
2023/08/23 05:09:33;;;;;;;943.17;867.40;;;12.80;99.90;;;;;;5112548;28;20940;-68
2023/08/23 05:12:00;;;;;;;950.03;873.40;;;12.90;99.90;;;;;;5112725;28;20559;-69
2023/08/23 05:14:27;;;;;;;951.80;874.23;;;13.00;99.90;;;;;;5112573;28;20452;-68
2023/08/23 05:16:54;;;;;;;942.90;866.07;;;13.10;99.90;;;;;;5112629;28;20455;-69
2023/08/23 05:19:20;;;;;;;935.70;861.20;;;13.10;99.90;;;;;;5112490;28;20924;-68
2023/08/23 05:21:49;;;;;;;944.73;871.07;;;13.20;99.90;;;;;;5112418;28;20441;-68
2023/08/23 05:24:16;;;;;;;943.73;871.00;;;13.20;99.90;;;;;;5111426;28;20457;-68
2023/08/23 05:26:43;;;;;;;933.90;859.10;;;13.30;99.90;;;;;;5112495;28;20455;-68
2023/08/23 05:29:10;;;;;;;890.90;820.67;;;13.50;99.90;;;;;;5112694;28;20536;-69
2023/08/23 05:31:36;;;;;;;837.03;774.07;;;13.70;99.90;;;;;;5112392;28;20559;-69
2023/08/23 05:34:03;;;;;;;777.23;723.13;;;14.00;99.90;;;;;;5116177;28;20451;-69
2023/08/23 05:36:30;;;;;;;713.07;666.97;;;14.30;99.90;;;;;;5116475;28;20452;-69
2023/08/23 05:39:03;;;;;;;662.60;624.10;;;14.60;99.90;;;;;;5116712;28;20513;-69
2023/08/23 05:41:30;;;;;;;479.67;455.57;;;14.90;99.90;;;;;;5116423;28;20440;-69
2023/08/23 05:43:57;;;;;;;330.97;316.73;;;15.30;99.90;;;;;;5116294;28;20448;-69
2023/08/23 05:46:24;;;;;;;160.57;154.17;;;15.60;99.90;;;;;;5116437;28;20494;-69
2023/08/23 05:48:50;;;;;;;82.63;78.73;;;15.80;99.90;;;;;;5116167;28;20444;-69
2023/08/23 05:51:17;;;;;;;24.97;23.03;;;16.00;99.90;;;;;;5116061;28;20477;-69
2023/08/23 05:53:44;;;;;;;25.23;23.20;;;16.10;99.90;;;;;;5116106;28;20956;-69
2023/08/23 05:56:12;;;;;;;28.10;25.50;;;16.20;99.90;;;;;;5116396;28;20448;-69
2023/08/23 05:58:39;;;;;;;27.77;26.17;;;16.30;99.90;;;;;;5116230;28;20452;-69
2023/08/23 06:01:05;;;;;;;61.73;58.83;;;16.40;99.90;;;;;;5116537;28;20448;-69
2023/08/23 06:03:32;;;;;;;123.57;118.43;;;16.50;99.90;;;;;;5115838;28;20448;-69
2023/08/23 06:05:59;;;;;;;210.37;203.07;;;16.50;99.90;;;;;;5116031;28;20444;-69
2023/08/23 06:08:26;;;;;;;338.23;325.83;;;16.50;99.90;;;;;;5116039;28;20471;-69
2023/08/23 06:10:53;;;;;;;422.43;405.93;;;16.50;99.90;;;;;;5115552;28;20448;-69
2023/08/23 06:13:22;;;;;;;504.73;483.53;;;16.60;99.90;;;;;;5115851;28;20489;-61
2023/08/23 06:15:49;;;;;;;555.47;530.87;;;16.60;99.90;;;;;;5115923;28;20828;-62
2023/08/23 06:18:16;;;;;;;598.60;571.37;;;16.70;99.90;;;;;;5115781;28;20449;-63
2023/08/23 06:20:45;;;;;;;584.97;557.83;;;16.70;99.90;;;;;;5115942;28;20444;-62
2023/08/23 06:23:12;;;;;;;612.53;583.20;;;16.80;99.90;;;;;;5115735;28;20448;-62
2023/08/23 06:25:39;;;;;;;607.90;578.73;;;16.90;99.90;;;;;;5115547;28;20481;-62
2023/08/23 06:28:06;;;;;;;524.87;500.30;;;17.00;99.90;;;;;;5115532;28;20936;-61
2023/08/23 06:30:36;;;;;;;494.20;470.30;;;17.00;99.90;;;;;;5115387;28;20451;-61
2023/08/23 06:33:05;;;;;;;473.13;450.40;;;17.10;99.90;;;;;;5115428;28;20533;-61
2023/08/23 06:35:32;;;;;;;409.50;390.60;;;17.20;99.90;;;;;;5115599;28;20441;-62
2023/08/23 06:37:59;;;;;;;358.93;342.73;;;17.30;99.90;;;;;;5115549;28;20457;-62
2023/08/23 06:40:26;;;;;;;334.13;319.53;;;17.40;99.90;;;;;;5115312;28;20445;-62
2023/08/23 06:42:52;;;;;;;303.93;290.93;;;17.50;99.90;;;;;;5115092;28;20464;-62
2023/08/23 06:45:19;;;;;;;291.63;279.37;;;17.50;99.90;;;;;;5114020;28;20451;-62
2023/08/23 06:47:48;;;;;;;267.03;256.30;;;17.60;99.90;;;;;;5115248;28;20547;-62
2023/08/23 06:50:15;;;;;;;270.40;259.33;;;17.70;99.90;;;;;;5115124;28;20449;-62
2023/08/23 06:52:42;;;;;;;221.57;213.23;;;17.90;99.90;;;;;;5115170;28;20483;-62
2023/08/23 06:55:09;;;;;;;189.27;182.43;;;17.90;99.90;;;;;;5114939;28;20448;-62
2023/08/23 06:57:36;;;;;;;148.37;141.97;;;18.00;99.90;;;;;;5114888;28;20936;-62
2023/08/23 07:00:03;;;;;;;162.27;156.23;;;18.10;99.90;;;;;;5115109;28;20445;-62
2023/08/23 07:02:30;;;;;;;142.43;137.17;;;18.20;99.90;;;;;;5115003;28;20445;-62
2023/08/23 07:04:59;;;;;;;138.47;132.97;;;18.30;99.90;;;;;;5114942;28;20445;-62
2023/08/23 07:07:26;;;;;;;112.97;108.57;;;18.40;99.90;;;;;;5114952;28;20506;-62
2023/08/23 07:09:53;;;;;;;122.97;117.67;;;18.50;99.90;;;;;;5114881;28;20452;-62
2023/08/23 07:12:20;;;;;;;109.63;104.93;;;18.60;99.90;;;;;;5114596;28;20911;-62
2023/08/23 07:14:49;;;;;;;91.43;87.03;;;18.70;99.90;;;;;;5114682;28;20447;-62
2023/08/23 07:17:16;;;;;;;60.90;58.10;;;18.80;99.90;;;;;;5114829;28;20449;-61
2023/08/23 07:19:43;;;;;;;56.67;53.47;;;19.00;99.90;;;;;;5114744;28;20452;-61
2023/08/23 07:22:11;;;;;;;38.07;35.17;;;19.10;99.90;;;;;;5114620;28;20445;-61
2023/08/23 07:24:38;;;;;;;30.80;28.70;;;19.30;99.90;;;;;;5114244;28;20958;-61
2023/08/23 07:27:05;;;;;;;27.50;25.20;;;19.40;99.90;;;;;;5114688;28;20445;-61
2023/08/23 07:29:32;;;;;;;19.67;17.73;;;19.60;99.90;;;;;;5114543;28;20450;-62
2023/08/23 07:31:59;;;;;;;19.57;17.67;;;19.70;99.90;;;;;;5114207;28;20473;-61
2023/08/23 07:34:26;;;;;;;12.73;11.40;;;19.90;99.90;;;;;;5114319;28;20448;-62
2023/08/23 07:36:53;;;;;;;15.53;12.20;;;20.00;99.90;;;;;;5114403;28;20452;-62
2023/08/23 07:39:21;;;;;;;16.90;9.63;;;20.20;99.90;;;;;;5112628;28;20473;-61
2023/08/23 07:41:48;;;;;;;14.80;8.50;;;20.30;99.90;;;;;;5113664;28;20933;-62
2023/08/23 07:44:15;;;;;;;13.53;9.17;;;20.40;99.90;;;;;;5113887;28;20449;-62
2023/08/23 07:46:42;;;;;;;14.90;9.67;;;20.60;99.90;;;;;;5113929;28;20471;-62
2023/08/23 07:49:08;;;;;;;14.77;7.97;;;20.70;99.90;;;;;;5113795;28;20455;-62
2023/08/23 07:51:35;;;;;;;17.67;8.43;;;20.90;98.90;;;;;;5113320;28;20940;-62
2023/08/23 07:54:03;;;;;;;17.73;7.93;;;21.00;98.70;;;;;;5113392;28;20456;-62
2023/08/23 07:56:31;;;;;;;13.00;7.43;;;21.20;96.10;;;;;;5113601;28;20456;-62
2023/08/23 07:58:57;;;;;;;14.60;7.17;;;21.40;95.70;;;;;;5113320;28;20453;-62
2023/08/23 08:01:25;;;;;;;15.93;8.40;;;21.80;95.90;;;;;;5113487;28;20482;-62
2023/08/23 08:03:52;;;;;;;18.27;7.70;;;22.20;93.30;;;;;;5113324;28;21009;-62
2023/08/23 08:06:19;;;;;;;10.93;7.30;;;22.60;89.80;;;;;;5113137;28;20543;-62
2023/08/23 08:08:46;;;;;;;19.33;8.33;;;23.00;88.80;;;;;;5113333;28;20475;-62
2023/08/23 08:11:15;;;;;;;16.40;8.10;;;23.50;87.80;;;;;;5113346;28;20449;-62
2023/08/23 08:13:43;;;;;;;14.03;8.50;;;23.80;74.60;;;;;;5112919;28;20485;-62
2023/08/23 08:16:11;;;;;;;17.47;8.87;;;24.20;65.60;;;;;;5113334;28;20453;-62
2023/08/23 08:18:38;;;;;;;17.40;9.17;;;24.40;61.70;;;;;;5113028;28;20452;-62
2023/08/23 08:21:05;;;;;;;17.97;9.03;;;24.90;59.40;;;;;;5110200;28;20445;-62
2023/08/23 08:23:32;;;;;;;20.70;8.67;;;25.30;58.10;;;;;;5111355;28;20494;-62
2023/08/23 08:25:59;;;;;;;14.27;8.17;;;25.40;49.30;;;;;;5111526;28;20519;-62
2023/08/23 08:28:26;;;;;;;13.77;8.60;;;25.70;49.50;;;;;;5111477;28;20796;-62
2023/08/23 08:30:55;;;;;;;14.30;7.77;;;26.10;49.80;;;;;;5111207;28;20449;-62
2023/08/23 08:33:21;;;;;;;12.83;8.27;;;26.50;50.00;;;;;;5111094;28;20473;-62
2023/08/23 08:35:48;;;;;;;13.60;8.73;;;26.50;41.00;;;;;;5112381;28;20460;-62
2023/08/23 08:38:15;;;;;;;18.00;8.80;;;26.40;40.90;;;;;;5113045;28;20449;-62
2023/08/23 08:40:42;;;;;;;15.53;9.37;;;26.80;41.20;;;;;;5112804;28;20450;-62
2023/08/23 08:43:09;;;;;;;20.07;9.60;;;26.70;41.20;;;;;;5112614;28;20420;-62
2023/08/23 08:45:36;;;;;;;15.57;9.23;;;26.70;41.20;;;;;;5112681;28;20455;-62
2023/08/23 08:48:05;;;;;;;15.90;8.87;;;27.10;32.30;;;;;;5112545;28;20448;-62
2023/08/23 08:50:33;;;;;;;17.43;7.83;;;27.10;32.20;;;;;;5112765;28;20520;-62
2023/08/23 08:53:06;;;;;;;12.67;7.57;;;27.30;33.20;;;;;;5112721;28;20484;-62
2023/08/23 08:55:33;;;;;;;14.20;7.77;;;27.60;28.40;;;;;;5112767;28;20470;-62
2023/08/23 08:58:01;;;;;;;14.30;7.17;;;27.80;29.90;;;;;;5112442;28;20452;-62
2023/08/23 09:00:29;;;;;;;12.80;8.20;;;28.00;24.90;;;;;;5112319;28;20818;-62
2023/08/23 09:02:57;;;;;;;14.93;7.67;;;28.20;25.10;;;;;;5113023;28;20443;-62
2023/08/23 09:05:26;;;;;;;14.53;7.70;;;28.40;25.00;;;;;;5112943;28;20542;-62
2023/08/23 09:07:54;;;;;;;16.00;8.07;;;28.60;24.60;;;;;;5112261;28;20455;-62
2023/08/23 09:10:22;;;;;;;14.73;7.07;;;28.70;17.90;;;;;;5113178;28;20948;-63
2023/08/23 09:12:48;;;;;;;16.43;7.50;;;28.50;17.80;;;;;;5112639;28;20564;-63
2023/08/23 09:15:19;;;;;;;18.03;7.23;;;28.70;17.80;;;;;;5112465;28;20484;-63
2023/08/23 09:17:46;;;;;;;13.00;7.70;;;29.10;18.00;;;;;;5112664;28;20481;-63
2023/08/23 09:20:13;;;;;;;12.83;6.90;;;29.40;18.20;;;;;;5112491;28;20448;-63
2023/08/23 09:22:41;;;;;;;11.83;7.57;;;29.60;18.30;;;;;;5112693;28;20473;-63
2023/08/23 09:25:08;;;;;;;16.70;8.57;;;30.10;18.60;;;;;;5112325;28;20449;-63
2023/08/23 09:27:35;;;;;;;14.03;5.90;;;30.40;11.10;;;;;;5112474;28;20445;-63
2023/08/23 09:30:04;;;;;;;16.17;8.30;;;30.70;11.30;;;;;;5112700;28;20817;-63
2023/08/23 09:32:31;;;;;;;15.17;7.47;;;30.70;3.40;;;;;;5112595;28;20905;-64
2023/08/23 09:35:09;;;;;;;10.60;6.30;;;30.90;3.50;;;;;;5112533;28;20532;-64
2023/08/23 09:37:35;;;;;;;14.37;7.27;;;31.00;3.60;;;;;;5112626;28;20938;-64
2023/08/23 09:40:04;;;;;;;12.37;6.50;;;30.70;1.40;;;;;;5112271;28;20531;-64
2023/08/23 09:42:34;;;;;;;11.43;6.47;;;31.10;3.60;;;;;;5112361;28;20437;-65
2023/08/23 09:45:03;;;;;;;10.27;5.63;;;31.60;1.00;;;;;;5112466;28;20450;-65
2023/08/23 09:47:32;;;;;;;16.43;6.03;;;32.20;1.00;;;;;;5111472;28;20445;-64
2023/08/23 09:50:03;;;;;;;12.57;6.07;;;31.60;1.00;;;;;;5111901;28;20820;-65
2023/08/23 09:52:32;;;;;;;20.87;6.43;;;31.50;1.00;;;;;;5111792;28;20480;-65
2023/08/23 09:55:08;;;;;;;15.60;6.00;;;31.60;1.00;;;;;;5111836;28;20448;-65
2023/08/23 09:57:36;;;;;;;15.47;6.63;;;31.80;1.00;;;;;;5112294;28;20448;-65
2023/08/23 10:00:03;;;;;;;12.90;6.33;;;32.10;1.00;;;;;;5111805;28;20923;-65
2023/08/23 10:02:30;;;;;;;15.30;6.40;;;32.50;1.00;;;;;;5111775;28;20427;-65
2023/08/23 10:05:00;;;;;;;12.87;5.47;;;32.60;1.00;;;;;;5111746;28;20419;-65
2023/08/23 10:07:27;;;;;;;10.50;5.50;;;32.40;1.00;;;;;;5111504;28;20850;-64
2023/08/23 10:09:56;;;;;;;8.10;5.20;;;32.90;1.00;;;;;;5110488;28;20475;-65
2023/08/23 10:12:25;;;;;;;10.60;4.30;;;33.10;1.00;;;;;;5110253;28;20472;-63
2023/08/23 10:14:54;;;;;;;12.83;4.50;;;33.60;1.00;;;;;;5110176;28;20424;-64
2023/08/23 10:17:22;;;;;;;10.93;4.63;;;33.50;1.00;;;;;;5109393;28;20462;-64
2023/08/23 10:19:49;;;;;;;9.70;4.30;;;33.90;1.00;;;;;;5113737;28;20202;-64
2023/08/23 10:22:18;;;;;;;7.50;3.63;;;33.80;1.00;;;;;;5114621;28;20420;-64
2023/08/23 10:24:47;;;;;;;8.20;3.90;;;34.10;1.00;;;;;;5115534;28;20445;-64
2023/08/23 10:27:14;;;;;;;10.73;3.93;;;34.30;1.00;;;;;;5115830;28;20455;-64
2023/08/23 10:29:42;;;;;;;11.53;4.77;;;34.60;1.00;;;;;;5115763;28;20451;-64
2023/08/23 10:32:10;;;;;;;14.13;3.83;;;33.40;1.00;;;;;;5115410;28;20540;-64
2023/08/23 10:34:39;;;;;;;9.90;3.60;;;32.30;1.00;;;;;;5115331;28;20956;-64
2023/08/23 10:37:23;;;;;;;8.93;3.67;;;32.10;1.00;;;;;;5115618;28;20816;-64
2023/08/23 10:39:51;;;;;;;11.07;3.33;;;32.00;1.00;;;;;;5115522;28;20807;-64
2023/08/23 10:42:19;;;;;;;6.87;2.47;;;32.70;1.00;;;;;;5115422;28;20446;-66
2023/08/23 10:44:53;;;;;;;9.13;3.17;;;32.30;1.00;;;;;;5115112;28;20494;-64
2023/08/23 10:47:20;;;;;;;9.43;2.77;;;32.60;1.00;;;;;;5115575;28;20444;-64
2023/08/23 10:49:48;;;;;;;11.50;4.57;;;33.60;1.00;;;;;;5115357;28;20475;-63
2023/08/23 10:52:14;;;;;;;10.33;3.10;;;33.70;1.00;;;;;;5114649;28;20449;-64
2023/08/23 10:54:42;;;;;;;9.50;2.63;;;33.60;1.00;;;;;;5115052;28;20423;-64
2023/08/23 10:57:09;;;;;;;6.00;2.10;;;34.00;1.00;;;;;;5115102;28;20424;-64
2023/08/23 10:59:36;;;;;;;8.80;2.83;;;33.70;1.00;;;;;;5115093;28;20944;-64
2023/08/23 11:02:04;;;;;;;8.57;3.20;;;33.90;1.00;;;;;;5115303;28;20471;-63
2023/08/23 11:04:32;;;;;;;9.93;2.57;;;33.80;1.00;;;;;;5115001;28;20507;-63
2023/08/23 11:06:59;;;;;;;17.47;3.63;;;33.60;1.00;;;;;;5114914;28;20954;-64
2023/08/23 11:09:26;;;;;;;18.73;3.50;;;33.60;1.00;;;;;;5114868;28;20419;-65
2023/08/23 11:11:53;;;;;;;8.50;2.77;;;33.10;1.00;;;;;;5114639;28;20445;-67
2023/08/23 11:14:20;;;;;;;8.80;2.63;;;34.00;1.00;;;;;;5114591;28;20477;-66
2023/08/23 11:16:46;;;;;;;7.47;2.00;;;33.60;1.00;;;;;;5114745;28;20455;-64
2023/08/23 11:19:15;;;;;;;6.87;2.23;;;33.30;1.00;;;;;;5114799;28;20799;-62
2023/08/23 11:21:42;;;;;;;8.50;2.40;;;34.10;1.00;;;;;;5115017;28;20448;-64
2023/08/23 11:24:09;;;;;;;10.13;2.50;;;34.10;1.00;;;;;;5114210;28;20419;-62
2023/08/23 11:26:37;;;;;;;8.60;2.87;;;34.10;1.00;;;;;;5113991;28;20463;-62
2023/08/23 11:29:04;;;;;;;7.57;2.63;;;34.30;1.00;;;;;;5114669;28;20452;-63
2023/08/23 11:31:32;;;;;;;7.60;2.30;;;34.40;1.00;;;;;;5113478;28;20787;-63
2023/08/23 11:34:05;;;;;;;7.57;2.33;;;34.40;1.00;;;;;;5113775;28;21116;-63
2023/08/23 11:36:33;;;;;;;11.70;2.20;;;33.40;1.00;;;;;;5113565;28;20440;-63
2023/08/23 11:39:03;;;;;;;9.53;2.00;;;32.80;1.00;;;;;;5113685;28;20419;-63
2023/08/23 11:41:31;;;;;;;8.30;2.53;;;33.00;1.00;;;;;;5114031;27;20663;-63
2023/08/23 11:43:58;;;;;;;6.30;2.10;;;33.50;1.00;;;;;;5113572;28;20445;-63
2023/08/23 11:46:24;;;;;;;10.53;1.90;;;33.80;1.00;;;;;;5113161;28;20463;-63
2023/08/23 11:48:51;;;;;;;11.03;1.70;;;34.20;1.00;;;;;;5112680;28;20449;-62
2023/08/23 11:51:18;;;;;;;10.73;1.80;;;33.00;1.00;;;;;;5113141;28;20423;-63
2023/08/23 11:53:54;;;;;;;7.60;2.20;;;33.50;1.00;;;;;;5113742;28;20481;-62
2023/08/23 11:56:21;;;;;;;10.67;2.33;;;33.60;1.00;;;;;;5113986;28;20491;-62
2023/08/23 11:58:48;;;;;;;6.50;2.23;;;33.40;1.00;;;;;;5112984;28;20424;-63
2023/08/23 12:01:15;;;;;;;8.47;2.13;;;33.00;1.00;;;;;;5113035;28;20809;-62
2023/08/23 12:03:42;;;;;;;9.70;2.40;;;32.30;1.00;;;;;;5112404;28;20419;-63
2023/08/23 12:06:09;;;;;;;9.23;1.93;;;32.40;1.00;;;;;;5112851;28;20967;-63
2023/08/23 12:08:36;;;;;;;7.80;1.97;;;32.80;1.00;;;;;;5112241;28;20445;-63
2023/08/23 12:11:05;;;;;;;9.63;3.20;;;33.20;1.00;;;;;;5112113;28;20992;-62
2023/08/23 12:13:32;;;;;;;10.53;2.60;;;33.00;1.00;;;;;;5112287;28;20600;-62
2023/08/23 12:15:59;;;;;;;9.47;2.03;;;33.40;1.00;;;;;;5112692;28;20501;-62
2023/08/23 12:18:28;;;;;;;8.53;2.43;;;34.10;1.00;;;;;;5113546;28;20445;-63
2023/08/23 12:20:55;;;;;;;8.53;2.60;;;34.60;1.00;;;;;;5113070;28;20826;-63
2023/08/23 12:23:22;;;;;;;6.90;2.40;;;33.90;1.00;;;;;;5111631;28;20441;-62
2023/08/23 12:25:49;;;;;;;8.43;2.50;;;34.50;1.00;;;;;;5112129;28;20473;-62